sensor_id;sensor_type;location;lat;lon;timestamp;temperature;humidity
18797;DHT22;9526;52.612;13.300;2023-02-01T00:01:57;4.30;99.90
18797;DHT22;9526;52.612;13.300;2023-02-01T00:04:22;4.30;99.90
18797;DHT22;9526;52.612;13.300;2023-02-01T00:06:46;4.20;99.90
18797;DHT22;9526;52.612;13.300;2023-02-01T00:09:10;4.20;99.90
18797;DHT22;9526;52.612;13.300;2023-02-01T00:11:34;4.20;99.90
18797;DHT22;9526;52.612;13.300;2023-02-01T00:13:59;4.20;99.90
18797;DHT22;9526;52.612;13.300;2023-02-01T00:16:24;4.20;99.90
18797;DHT22;9526;52.612;13.300;2023-02-01T00:18:51;4.20;99.90
18797;DHT22;9526;52.612;13.300;2023-02-01T00:21:19;4.20;99.90
18797;DHT22;9526;52.612;13.300;2023-02-01T00:23:43;4.20;99.90
18797;DHT22;9526;52.612;13.300;2023-02-01T00:26:12;4.20;99.90
18797;DHT22;9526;52.612;13.300;2023-02-01T00:28:37;4.20;99.90
18797;DHT22;9526;52.612;13.300;2023-02-01T00:31:04;4.20;99.90
18797;DHT22;9526;52.612;13.300;2023-02-01T00:33:28;4.20;99.90
18797;DHT22;9526;52.612;13.300;2023-02-01T00:35:56;4.20;99.90
18797;DHT22;9526;52.612;13.300;2023-02-01T00:38:20;4.20;99.90
18797;DHT22;9526;52.612;13.300;2023-02-01T00:40:45;4.20;99.90
18797;DHT22;9526;52.612;13.300;2023-02-01T00:43:09;4.20;99.90
18797;DHT22;9526;52.612;13.300;2023-02-01T00:45:32;4.20;99.90
18797;DHT22;9526;52.612;13.300;2023-02-01T00:47:57;4.20;99.90
18797;DHT22;9526;52.612;13.300;2023-02-01T00:50:21;4.20;99.90
18797;DHT22;9526;52.612;13.300;2023-02-01T00:52:46;4.30;99.90
18797;DHT22;9526;52.612;13.300;2023-02-01T00:55:09;4.30;99.90
18797;DHT22;9526;52.612;13.300;2023-02-01T00:57:33;4.30;99.90
18797;DHT22;9526;52.612;13.300;2023-02-01T00:59:57;4.20;99.90
18797;DHT22;9526;52.612;13.300;2023-02-01T01:02:21;4.30;99.90
18797;DHT22;9526;52.612;13.300;2023-02-01T01:04:46;4.20;99.90
18797;DHT22;9526;52.612;13.300;2023-02-01T01:07:09;4.30;99.90
18797;DHT22;9526;52.612;13.300;2023-02-01T01:09:34;4.20;99.90
18797;DHT22;9526;52.612;13.300;2023-02-01T01:11:58;4.20;99.90
18797;DHT22;9526;52.612;13.300;2023-02-01T01:14:25;4.20;99.90
18797;DHT22;9526;52.612;13.300;2023-02-01T01:16:49;4.20;99.90
18797;DHT22;9526;52.612;13.300;2023-02-01T01:19:13;4.10;99.90
18797;DHT22;9526;52.612;13.300;2023-02-01T01:21:38;4.20;99.90
18797;DHT22;9526;52.612;13.300;2023-02-01T01:24:02;4.20;99.90
18797;DHT22;9526;52.612;13.300;2023-02-01T01:26:27;4.20;99.90
18797;DHT22;9526;52.612;13.300;2023-02-01T01:28:52;4.20;99.90
18797;DHT22;9526;52.612;13.300;2023-02-01T01:31:20;4.20;99.90
18797;DHT22;9526;52.612;13.300;2023-02-01T01:33:46;4.20;99.90
18797;DHT22;9526;52.612;13.300;2023-02-01T01:36:11;4.10;99.90
18797;DHT22;9526;52.612;13.300;2023-02-01T01:38:37;4.10;99.90
18797;DHT22;9526;52.612;13.300;2023-02-01T01:41:01;4.20;99.90
18797;DHT22;9526;52.612;13.300;2023-02-01T01:43:25;4.10;99.90
18797;DHT22;9526;52.612;13.300;2023-02-01T01:45:50;4.20;99.90
18797;DHT22;9526;52.612;13.300;2023-02-01T01:48:17;4.20;99.90
18797;DHT22;9526;52.612;13.300;2023-02-01T01:50:47;4.20;99.90
18797;DHT22;9526;52.612;13.300;2023-02-01T01:53:14;4.10;99.90
18797;DHT22;9526;52.612;13.300;2023-02-01T01:55:43;4.10;99.90
18797;DHT22;9526;52.612;13.300;2023-02-01T01:58:12;4.20;99.90
18797;DHT22;9526;52.612;13.300;2023-02-01T02:00:39;4.20;99.90
18797;DHT22;9526;52.612;13.300;2023-02-01T02:03:07;4.20;99.90
18797;DHT22;9526;52.612;13.300;2023-02-01T02:05:37;4.20;99.90
18797;DHT22;9526;52.612;13.300;2023-02-01T02:08:02;4.20;99.90
18797;DHT22;9526;52.612;13.300;2023-02-01T02:10:27;4.20;99.90
18797;DHT22;9526;52.612;13.300;2023-02-01T02:13:06;4.30;99.90
18797;DHT22;9526;52.612;13.300;2023-02-01T02:15:30;4.30;99.90
18797;DHT22;9526;52.612;13.300;2023-02-01T02:17:58;4.30;99.90
18797;DHT22;9526;52.612;13.300;2023-02-01T02:24:08;4.30;99.90
18797;DHT22;9526;52.612;13.300;2023-02-01T02:26:56;4.40;99.90
18797;DHT22;9526;52.612;13.300;2023-02-01T02:29:58;4.40;99.90
18797;DHT22;9526;52.612;13.300;2023-02-01T02:36:01;4.40;99.90
18797;DHT22;9526;52.612;13.300;2023-02-01T02:38:33;4.40;99.90
18797;DHT22;9526;52.612;13.300;2023-02-01T02:41:08;4.40;99.90
18797;DHT22;9526;52.612;13.300;2023-02-01T02:43:59;4.40;99.90
18797;DHT22;9526;52.612;13.300;2023-02-01T02:46:46;4.50;99.90
18797;DHT22;9526;52.612;13.300;2023-02-01T02:49:36;4.50;99.90
18797;DHT22;9526;52.612;13.300;2023-02-01T02:52:06;4.30;99.90
18797;DHT22;9526;52.612;13.300;2023-02-01T02:55:07;4.50;99.90
18797;DHT22;9526;52.612;13.300;2023-02-01T02:57:35;4.50;99.90
18797;DHT22;9526;52.612;13.300;2023-02-01T03:00:21;4.50;99.90
18797;DHT22;9526;52.612;13.300;2023-02-01T03:03:04;4.50;99.90
18797;DHT22;9526;52.612;13.300;2023-02-01T03:05:48;4.50;99.90
18797;DHT22;9526;52.612;13.300;2023-02-01T03:08:15;4.50;99.90
18797;DHT22;9526;52.612;13.300;2023-02-01T03:10:50;4.50;99.90
18797;DHT22;9526;52.612;13.300;2023-02-01T03:13:25;4.50;99.90
18797;DHT22;9526;52.612;13.300;2023-02-01T03:15:58;4.50;99.90
18797;DHT22;9526;52.612;13.300;2023-02-01T03:18:29;4.50;99.90
18797;DHT22;9526;52.612;13.300;2023-02-01T03:20:58;4.50;99.90
18797;DHT22;9526;52.612;13.300;2023-02-01T03:23:28;4.50;99.90
18797;DHT22;9526;52.612;13.300;2023-02-01T03:25:57;4.50;99.90
18797;DHT22;9526;52.612;13.300;2023-02-01T03:28:25;4.50;99.90
18797;DHT22;9526;52.612;13.300;2023-02-01T03:30:51;4.50;99.90
18797;DHT22;9526;52.612;13.300;2023-02-01T03:33:18;4.50;99.90
18797;DHT22;9526;52.612;13.300;2023-02-01T03:35:50;4.50;99.90
18797;DHT22;9526;52.612;13.300;2023-02-01T03:38:25;4.50;99.90
18797;DHT22;9526;52.612;13.300;2023-02-01T03:40:55;4.50;99.90
18797;DHT22;9526;52.612;13.300;2023-02-01T03:43:21;4.50;99.90
18797;DHT22;9526;52.612;13.300;2023-02-01T03:45:50;4.40;99.90
18797;DHT22;9526;52.612;13.300;2023-02-01T03:48:17;4.40;99.90
18797;DHT22;9526;52.612;13.300;2023-02-01T03:50:46;4.40;99.90
18797;DHT22;9526;52.612;13.300;2023-02-01T03:53:16;4.40;99.90
18797;DHT22;9526;52.612;13.300;2023-02-01T03:55:41;4.40;99.90
18797;DHT22;9526;52.612;13.300;2023-02-01T03:58:08;4.40;99.90
18797;DHT22;9526;52.612;13.300;2023-02-01T04:00:33;4.40;99.90
18797;DHT22;9526;52.612;13.300;2023-02-01T04:02:57;4.50;99.90
18797;DHT22;9526;52.612;13.300;2023-02-01T04:05:22;4.50;99.90
18797;DHT22;9526;52.612;13.300;2023-02-01T04:07:53;4.50;99.90
18797;DHT22;9526;52.612;13.300;2023-02-01T04:10:18;4.50;99.90
18797;DHT22;9526;52.612;13.300;2023-02-01T04:12:42;4.60;99.90
18797;DHT22;9526;52.612;13.300;2023-02-01T04:15:07;4.60;99.90
18797;DHT22;9526;52.612;13.300;2023-02-01T04:17:31;4.60;99.90
18797;DHT22;9526;52.612;13.300;2023-02-01T04:19:55;4.70;99.90
18797;DHT22;9526;52.612;13.300;2023-02-01T04:22:18;4.70;99.90
18797;DHT22;9526;52.612;13.300;2023-02-01T04:24:42;4.80;99.90
18797;DHT22;9526;52.612;13.300;2023-02-01T04:27:07;4.70;99.90
18797;DHT22;9526;52.612;13.300;2023-02-01T04:29:31;4.80;99.90
18797;DHT22;9526;52.612;13.300;2023-02-01T04:31:55;4.80;99.90
18797;DHT22;9526;52.612;13.300;2023-02-01T04:34:18;4.80;99.90
18797;DHT22;9526;52.612;13.300;2023-02-01T04:36:44;4.90;99.90
18797;DHT22;9526;52.612;13.300;2023-02-01T04:39:08;4.90;99.90
18797;DHT22;9526;52.612;13.300;2023-02-01T04:41:32;5.00;99.90
18797;DHT22;9526;52.612;13.300;2023-02-01T04:43:57;5.00;99.90
18797;DHT22;9526;52.612;13.300;2023-02-01T04:46:21;5.00;99.90
18797;DHT22;9526;52.612;13.300;2023-02-01T04:48:45;5.00;99.90
18797;DHT22;9526;52.612;13.300;2023-02-01T04:51:09;5.00;99.90
18797;DHT22;9526;52.612;13.300;2023-02-01T04:53:33;5.00;99.90
18797;DHT22;9526;52.612;13.300;2023-02-01T04:55:57;5.10;99.90
18797;DHT22;9526;52.612;13.300;2023-02-01T04:58:21;5.10;99.90
18797;DHT22;9526;52.612;13.300;2023-02-01T05:00:46;5.10;99.90
18797;DHT22;9526;52.612;13.300;2023-02-01T05:03:11;5.20;99.90
18797;DHT22;9526;52.612;13.300;2023-02-01T05:05:35;5.20;99.90
18797;DHT22;9526;52.612;13.300;2023-02-01T05:07:59;5.20;99.90
18797;DHT22;9526;52.612;13.300;2023-02-01T05:10:22;5.20;99.90
18797;DHT22;9526;52.612;13.300;2023-02-01T05:12:46;5.20;99.90
18797;DHT22;9526;52.612;13.300;2023-02-01T05:15:28;5.30;99.90
18797;DHT22;9526;52.612;13.300;2023-02-01T05:17:53;5.30;99.90
18797;DHT22;9526;52.612;13.300;2023-02-01T05:20:16;5.30;99.90
18797;DHT22;9526;52.612;13.300;2023-02-01T05:22:41;5.30;99.90
18797;DHT22;9526;52.612;13.300;2023-02-01T05:25:05;5.30;99.90
18797;DHT22;9526;52.612;13.300;2023-02-01T05:27:30;5.30;99.90
18797;DHT22;9526;52.612;13.300;2023-02-01T05:29:53;5.40;99.90
18797;DHT22;9526;52.612;13.300;2023-02-01T05:32:17;5.40;99.90
18797;DHT22;9526;52.612;13.300;2023-02-01T05:34:45;5.40;99.90
18797;DHT22;9526;52.612;13.300;2023-02-01T05:37:09;5.40;99.90
18797;DHT22;9526;52.612;13.300;2023-02-01T05:39:33;5.40;99.90
18797;DHT22;9526;52.612;13.300;2023-02-01T05:41:57;5.40;99.90
18797;DHT22;9526;52.612;13.300;2023-02-01T05:44:20;5.50;99.90
18797;DHT22;9526;52.612;13.300;2023-02-01T05:46:44;5.50;99.90
18797;DHT22;9526;52.612;13.300;2023-02-01T05:49:11;5.50;99.90
18797;DHT22;9526;52.612;13.300;2023-02-01T05:51:36;5.50;99.90
18797;DHT22;9526;52.612;13.300;2023-02-01T05:53:59;5.50;99.90
18797;DHT22;9526;52.612;13.300;2023-02-01T05:56:23;5.50;99.90
18797;DHT22;9526;52.612;13.300;2023-02-01T05:58:47;5.50;99.90
18797;DHT22;9526;52.612;13.300;2023-02-01T06:01:10;5.50;99.90
18797;DHT22;9526;52.612;13.300;2023-02-01T06:03:34;5.50;99.90
18797;DHT22;9526;52.612;13.300;2023-02-01T06:05:58;5.60;99.90
18797;DHT22;9526;52.612;13.300;2023-02-01T06:08:24;5.50;99.90
18797;DHT22;9526;52.612;13.300;2023-02-01T06:10:48;5.60;99.90
18797;DHT22;9526;52.612;13.300;2023-02-01T06:13:12;5.60;99.90
18797;DHT22;9526;52.612;13.300;2023-02-01T06:15:36;5.60;99.90
18797;DHT22;9526;52.612;13.300;2023-02-01T06:18:00;5.60;99.90
18797;DHT22;9526;52.612;13.300;2023-02-01T06:20:24;5.50;99.90
18797;DHT22;9526;52.612;13.300;2023-02-01T06:22:48;5.50;99.90
18797;DHT22;9526;52.612;13.300;2023-02-01T06:25:13;5.50;99.90
18797;DHT22;9526;52.612;13.300;2023-02-01T06:27:38;5.50;99.90
18797;DHT22;9526;52.612;13.300;2023-02-01T06:30:03;5.40;99.90
18797;DHT22;9526;52.612;13.300;2023-02-01T06:32:28;5.40;99.90
18797;DHT22;9526;52.612;13.300;2023-02-01T06:34:51;5.40;99.90
18797;DHT22;9526;52.612;13.300;2023-02-01T06:37:15;5.40;99.90
18797;DHT22;9526;52.612;13.300;2023-02-01T06:39:39;5.40;99.90
18797;DHT22;9526;52.612;13.300;2023-02-01T06:42:04;5.30;99.90
18797;DHT22;9526;52.612;13.300;2023-02-01T06:44:28;5.30;99.90
18797;DHT22;9526;52.612;13.300;2023-02-01T06:46:51;5.30;99.90
18797;DHT22;9526;52.612;13.300;2023-02-01T06:49:16;5.30;99.90
18797;DHT22;9526;52.612;13.300;2023-02-01T06:51:41;5.30;99.90
18797;DHT22;9526;52.612;13.300;2023-02-01T06:54:05;5.30;99.90
18797;DHT22;9526;52.612;13.300;2023-02-01T06:56:29;5.20;99.90
18797;DHT22;9526;52.612;13.300;2023-02-01T06:58:55;5.30;99.90
18797;DHT22;9526;52.612;13.300;2023-02-01T07:01:19;5.30;99.90
18797;DHT22;9526;52.612;13.300;2023-02-01T07:03:43;5.20;99.90
18797;DHT22;9526;52.612;13.300;2023-02-01T07:06:10;5.30;99.90
18797;DHT22;9526;52.612;13.300;2023-02-01T07:08:36;5.20;99.90
18797;DHT22;9526;52.612;13.300;2023-02-01T07:11:02;5.20;99.90
18797;DHT22;9526;52.612;13.300;2023-02-01T07:13:25;5.20;99.90
18797;DHT22;9526;52.612;13.300;2023-02-01T07:15:51;5.20;99.90
18797;DHT22;9526;52.612;13.300;2023-02-01T07:18:14;5.20;99.90
18797;DHT22;9526;52.612;13.300;2023-02-01T07:20:38;5.20;99.90
18797;DHT22;9526;52.612;13.300;2023-02-01T07:23:02;5.20;99.90
18797;DHT22;9526;52.612;13.300;2023-02-01T07:25:25;5.20;99.90
18797;DHT22;9526;52.612;13.300;2023-02-01T07:27:49;5.20;99.90
18797;DHT22;9526;52.612;13.300;2023-02-01T07:30:13;5.20;99.90
18797;DHT22;9526;52.612;13.300;2023-02-01T07:32:38;5.20;99.90
18797;DHT22;9526;52.612;13.300;2023-02-01T07:35:02;5.20;99.90
18797;DHT22;9526;52.612;13.300;2023-02-01T07:37:25;5.20;99.90
18797;DHT22;9526;52.612;13.300;2023-02-01T07:39:49;5.20;99.90
18797;DHT22;9526;52.612;13.300;2023-02-01T07:42:13;5.20;99.90
18797;DHT22;9526;52.612;13.300;2023-02-01T07:44:36;5.20;99.90
18797;DHT22;9526;52.612;13.300;2023-02-01T07:47:00;5.10;99.90
18797;DHT22;9526;52.612;13.300;2023-02-01T07:49:25;5.10;99.90
18797;DHT22;9526;52.612;13.300;2023-02-01T07:51:49;5.10;99.90
18797;DHT22;9526;52.612;13.300;2023-02-01T07:54:12;5.00;99.90
18797;DHT22;9526;52.612;13.300;2023-02-01T07:56:36;5.00;99.90
18797;DHT22;9526;52.612;13.300;2023-02-01T07:59:00;4.90;99.90
18797;DHT22;9526;52.612;13.300;2023-02-01T08:01:25;4.90;99.90
18797;DHT22;9526;52.612;13.300;2023-02-01T08:03:50;4.90;99.90
18797;DHT22;9526;52.612;13.300;2023-02-01T08:06:16;4.80;99.90
18797;DHT22;9526;52.612;13.300;2023-02-01T08:08:41;4.70;99.90
18797;DHT22;9526;52.612;13.300;2023-02-01T08:11:07;4.60;99.90
18797;DHT22;9526;52.612;13.300;2023-02-01T08:13:32;4.70;99.90
18797;DHT22;9526;52.612;13.300;2023-02-01T08:15:58;4.70;99.90
18797;DHT22;9526;52.612;13.300;2023-02-01T08:18:22;4.70;99.90
18797;DHT22;9526;52.612;13.300;2023-02-01T08:20:45;4.60;99.90
18797;DHT22;9526;52.612;13.300;2023-02-01T08:23:11;4.60;99.90
18797;DHT22;9526;52.612;13.300;2023-02-01T08:25:35;4.60;99.90
18797;DHT22;9526;52.612;13.300;2023-02-01T08:27:59;4.50;99.90
18797;DHT22;9526;52.612;13.300;2023-02-01T08:30:23;4.50;99.90
18797;DHT22;9526;52.612;13.300;2023-02-01T08:32:47;4.50;99.90
18797;DHT22;9526;52.612;13.300;2023-02-01T08:35:10;4.50;99.90
18797;DHT22;9526;52.612;13.300;2023-02-01T08:37:34;4.50;99.90
18797;DHT22;9526;52.612;13.300;2023-02-01T08:39:59;4.50;99.90
18797;DHT22;9526;52.612;13.300;2023-02-01T08:42:23;4.50;99.90
18797;DHT22;9526;52.612;13.300;2023-02-01T08:45:05;4.50;99.90
18797;DHT22;9526;52.612;13.300;2023-02-01T08:47:31;4.40;99.90
18797;DHT22;9526;52.612;13.300;2023-02-01T08:49:54;4.40;99.90
18797;DHT22;9526;52.612;13.300;2023-02-01T08:52:18;4.40;99.90
18797;DHT22;9526;52.612;13.300;2023-02-01T08:54:42;4.40;99.90
18797;DHT22;9526;52.612;13.300;2023-02-01T08:57:07;4.40;99.90
18797;DHT22;9526;52.612;13.300;2023-02-01T08:59:31;4.40;99.90
18797;DHT22;9526;52.612;13.300;2023-02-01T09:01:55;4.40;99.90
18797;DHT22;9526;52.612;13.300;2023-02-01T09:04:18;4.50;99.90
18797;DHT22;9526;52.612;13.300;2023-02-01T09:06:42;4.50;99.90
18797;DHT22;9526;52.612;13.300;2023-02-01T09:09:06;4.50;99.90
18797;DHT22;9526;52.612;13.300;2023-02-01T09:11:30;4.50;99.90
18797;DHT22;9526;52.612;13.300;2023-02-01T09:13:55;4.60;99.90
18797;DHT22;9526;52.612;13.300;2023-02-01T09:16:19;4.60;99.90
18797;DHT22;9526;52.612;13.300;2023-02-01T09:18:43;4.70;99.90
18797;DHT22;9526;52.612;13.300;2023-02-01T09:21:27;4.70;99.90
18797;DHT22;9526;52.612;13.300;2023-02-01T09:23:52;4.80;99.90
18797;DHT22;9526;52.612;13.300;2023-02-01T09:26:15;4.90;99.90
18797;DHT22;9526;52.612;13.300;2023-02-01T09:28:43;4.90;99.90
18797;DHT22;9526;52.612;13.300;2023-02-01T09:31:08;4.90;99.90
18797;DHT22;9526;52.612;13.300;2023-02-01T09:33:32;4.90;99.90
18797;DHT22;9526;52.612;13.300;2023-02-01T09:35:56;4.90;99.90
18797;DHT22;9526;52.612;13.300;2023-02-01T09:38:20;4.90;99.90
18797;DHT22;9526;52.612;13.300;2023-02-01T09:40:46;4.90;99.90
18797;DHT22;9526;52.612;13.300;2023-02-01T09:43:18;4.90;99.90
18797;DHT22;9526;52.612;13.300;2023-02-01T09:45:51;4.90;99.90
18797;DHT22;9526;52.612;13.300;2023-02-01T09:48:26;4.90;99.90
18797;DHT22;9526;52.612;13.300;2023-02-01T09:50:55;4.90;99.90
18797;DHT22;9526;52.612;13.300;2023-02-01T09:53:25;5.00;99.90
18797;DHT22;9526;52.612;13.300;2023-02-01T09:55:54;5.00;99.90
18797;DHT22;9526;52.612;13.300;2023-02-01T09:58:24;5.10;99.90
18797;DHT22;9526;52.612;13.300;2023-02-01T10:00:52;5.10;99.90
18797;DHT22;9526;52.612;13.300;2023-02-01T10:03:17;5.10;99.90
18797;DHT22;9526;52.612;13.300;2023-02-01T10:05:58;5.10;99.90
18797;DHT22;9526;52.612;13.300;2023-02-01T10:09:01;5.00;99.90
18797;DHT22;9526;52.612;13.300;2023-02-01T10:11:40;5.00;99.90
18797;DHT22;9526;52.612;13.300;2023-02-01T10:14:17;5.00;99.90
18797;DHT22;9526;52.612;13.300;2023-02-01T10:16:57;4.90;99.90
18797;DHT22;9526;52.612;13.300;2023-02-01T10:19:35;4.90;99.90
18797;DHT22;9526;52.612;13.300;2023-02-01T10:22:07;4.90;99.90
18797;DHT22;9526;52.612;13.300;2023-02-01T10:24:42;4.90;99.90
18797;DHT22;9526;52.612;13.300;2023-02-01T10:27:14;5.00;99.90
18797;DHT22;9526;52.612;13.300;2023-02-01T10:29:42;5.00;99.90
18797;DHT22;9526;52.612;13.300;2023-02-01T10:32:13;5.30;99.90
18797;DHT22;9526;52.612;13.300;2023-02-01T10:34:38;5.20;99.90
18797;DHT22;9526;52.612;13.300;2023-02-01T10:37:15;5.30;99.90
18797;DHT22;9526;52.612;13.300;2023-02-01T10:39:43;5.40;99.90
18797;DHT22;9526;52.612;13.300;2023-02-01T10:42:08;5.40;99.90
18797;DHT22;9526;52.612;13.300;2023-02-01T10:44:36;5.40;99.90
18797;DHT22;9526;52.612;13.300;2023-02-01T10:47:08;5.40;99.90
18797;DHT22;9526;52.612;13.300;2023-02-01T10:49:37;5.40;99.90
18797;DHT22;9526;52.612;13.300;2023-02-01T10:52:12;5.40;99.90
18797;DHT22;9526;52.612;13.300;2023-02-01T10:54:40;5.40;99.90
18797;DHT22;9526;52.612;13.300;2023-02-01T10:57:07;5.30;99.90
18797;DHT22;9526;52.612;13.300;2023-02-01T10:59:32;5.30;99.90
18797;DHT22;9526;52.612;13.300;2023-02-01T11:01:59;5.30;99.90
18797;DHT22;9526;52.612;13.300;2023-02-01T11:04:25;5.30;99.90
18797;DHT22;9526;52.612;13.300;2023-02-01T11:06:53;5.30;99.90
18797;DHT22;9526;52.612;13.300;2023-02-01T11:09:31;5.40;99.90
18797;DHT22;9526;52.612;13.300;2023-02-01T11:11:57;5.40;99.90
18797;DHT22;9526;52.612;13.300;2023-02-01T11:14:27;5.50;99.90
18797;DHT22;9526;52.612;13.300;2023-02-01T11:16:59;5.60;99.90
18797;DHT22;9526;52.612;13.300;2023-02-01T11:19:23;5.60;99.90
18797;DHT22;9526;52.612;13.300;2023-02-01T11:21:49;5.70;99.90
18797;DHT22;9526;52.612;13.300;2023-02-01T11:24:21;5.80;99.90
18797;DHT22;9526;52.612;13.300;2023-02-01T11:26:48;5.90;99.90
18797;DHT22;9526;52.612;13.300;2023-02-01T11:29:13;6.10;99.90
18797;DHT22;9526;52.612;13.300;2023-02-01T11:31:41;6.10;99.90
18797;DHT22;9526;52.612;13.300;2023-02-01T11:34:07;6.10;99.90
18797;DHT22;9526;52.612;13.300;2023-02-01T11:36:34;6.10;99.90
18797;DHT22;9526;52.612;13.300;2023-02-01T11:39:17;6.20;99.90
18797;DHT22;9526;52.612;13.300;2023-02-01T11:41:58;6.10;99.90
18797;DHT22;9526;52.612;13.300;2023-02-01T11:44:30;6.20;99.90
18797;DHT22;9526;52.612;13.300;2023-02-01T11:46:56;6.10;99.90
18797;DHT22;9526;52.612;13.300;2023-02-01T11:49:41;6.20;99.90
18797;DHT22;9526;52.612;13.300;2023-02-01T11:52:12;6.20;99.90
18797;DHT22;9526;52.612;13.300;2023-02-01T11:54:54;6.20;99.90
18797;DHT22;9526;52.612;13.300;2023-02-01T11:57:35;6.30;99.90
18797;DHT22;9526;52.612;13.300;2023-02-01T12:06:34;6.50;99.90
18797;DHT22;9526;52.612;13.300;2023-02-01T12:09:26;6.70;99.90
18797;DHT22;9526;52.612;13.300;2023-02-01T12:12:16;6.80;99.90
18797;DHT22;9526;52.612;13.300;2023-02-01T12:14:57;6.90;99.90
18797;DHT22;9526;52.612;13.300;2023-02-01T12:17:46;6.80;99.90
18797;DHT22;9526;52.612;13.300;2023-02-01T12:20:28;6.80;99.90
18797;DHT22;9526;52.612;13.300;2023-02-01T12:23:15;6.90;99.90
18797;DHT22;9526;52.612;13.300;2023-02-01T12:25:58;6.90;99.90
18797;DHT22;9526;52.612;13.300;2023-02-01T12:31:52;6.80;99.90
18797;DHT22;9526;52.612;13.300;2023-02-01T12:34:46;6.70;99.90
18797;DHT22;9526;52.612;13.300;2023-02-01T12:37:26;6.60;99.90
18797;DHT22;9526;52.612;13.300;2023-02-01T12:42:58;6.60;99.90
18797;DHT22;9526;52.612;13.300;2023-02-01T12:45:30;6.50;99.90
18797;DHT22;9526;52.612;13.300;2023-02-01T12:47:59;6.50;99.90
18797;DHT22;9526;52.612;13.300;2023-02-01T12:50:29;6.50;99.90
18797;DHT22;9526;52.612;13.300;2023-02-01T12:53:02;6.50;99.90
18797;DHT22;9526;52.612;13.300;2023-02-01T12:55:35;6.50;99.90
18797;DHT22;9526;52.612;13.300;2023-02-01T12:58:09;6.50;99.90
18797;DHT22;9526;52.612;13.300;2023-02-01T13:00:38;6.50;99.90
18797;DHT22;9526;52.612;13.300;2023-02-01T13:03:10;6.50;99.90
18797;DHT22;9526;52.612;13.300;2023-02-01T13:05:44;6.40;99.90
18797;DHT22;9526;52.612;13.300;2023-02-01T13:08:14;6.10;99.90
18797;DHT22;9526;52.612;13.300;2023-02-01T13:10:43;5.70;99.90
18797;DHT22;9526;52.612;13.300;2023-02-01T13:13:14;5.40;99.90
18797;DHT22;9526;52.612;13.300;2023-02-01T13:15:46;5.30;99.90
18797;DHT22;9526;52.612;13.300;2023-02-01T13:18:16;5.30;99.90
18797;DHT22;9526;52.612;13.300;2023-02-01T13:20:47;5.30;99.90
18797;DHT22;9526;52.612;13.300;2023-02-01T13:23:22;5.30;99.90
18797;DHT22;9526;52.612;13.300;2023-02-01T13:25:49;5.30;99.90
18797;DHT22;9526;52.612;13.300;2023-02-01T13:28:17;5.40;99.90
18797;DHT22;9526;52.612;13.300;2023-02-01T13:31:08;5.40;99.90
18797;DHT22;9526;52.612;13.300;2023-02-01T13:37:59;5.50;99.90
18797;DHT22;9526;52.612;13.300;2023-02-01T13:40:41;5.60;99.90
18797;DHT22;9526;52.612;13.300;2023-02-01T13:43:10;5.70;99.90
18797;DHT22;9526;52.612;13.300;2023-02-01T13:45:41;5.80;99.90
18797;DHT22;9526;52.612;13.300;2023-02-01T13:48:17;5.90;99.90
18797;DHT22;9526;52.612;13.300;2023-02-01T13:50:51;6.00;99.90
18797;DHT22;9526;52.612;13.300;2023-02-01T13:53:18;6.00;99.90
18797;DHT22;9526;52.612;13.300;2023-02-01T13:55:49;6.10;99.90
18797;DHT22;9526;52.612;13.300;2023-02-01T13:58:20;6.20;99.90
18797;DHT22;9526;52.612;13.300;2023-02-01T14:00:46;6.20;99.90
18797;DHT22;9526;52.612;13.300;2023-02-01T14:03:19;6.30;99.90
18797;DHT22;9526;52.612;13.300;2023-02-01T14:06:17;6.30;99.90
18797;DHT22;9526;52.612;13.300;2023-02-01T14:09:13;6.40;99.90
18797;DHT22;9526;52.612;13.300;2023-02-01T14:11:43;6.40;99.90
18797;DHT22;9526;52.612;13.300;2023-02-01T14:17:36;6.30;99.90
18797;DHT22;9526;52.612;13.300;2023-02-01T14:23:14;6.10;99.90
18797;DHT22;9526;52.612;13.300;2023-02-01T14:25:40;6.10;99.90
18797;DHT22;9526;52.612;13.300;2023-02-01T14:28:11;6.10;99.90
18797;DHT22;9526;52.612;13.300;2023-02-01T14:30:36;6.00;99.90
18797;DHT22;9526;52.612;13.300;2023-02-01T14:33:12;6.00;99.90
18797;DHT22;9526;52.612;13.300;2023-02-01T14:35:42;6.00;99.90
18797;DHT22;9526;52.612;13.300;2023-02-01T14:38:08;6.00;99.90
18797;DHT22;9526;52.612;13.300;2023-02-01T14:40:34;6.00;99.90
18797;DHT22;9526;52.612;13.300;2023-02-01T14:42:58;6.00;99.90
18797;DHT22;9526;52.612;13.300;2023-02-01T14:45:47;5.90;99.90
18797;DHT22;9526;52.612;13.300;2023-02-01T14:48:43;5.90;99.90
18797;DHT22;9526;52.612;13.300;2023-02-01T14:51:08;5.90;99.90
18797;DHT22;9526;52.612;13.300;2023-02-01T14:53:35;6.00;99.90
18797;DHT22;9526;52.612;13.300;2023-02-01T14:56:06;6.00;99.90
18797;DHT22;9526;52.612;13.300;2023-02-01T14:58:40;6.00;99.90
18797;DHT22;9526;52.612;13.300;2023-02-01T15:01:15;6.00;99.90
18797;DHT22;9526;52.612;13.300;2023-02-01T15:03:47;6.00;99.90
18797;DHT22;9526;52.612;13.300;2023-02-01T15:06:33;6.00;99.90
18797;DHT22;9526;52.612;13.300;2023-02-01T15:09:03;6.00;99.90
18797;DHT22;9526;52.612;13.300;2023-02-01T15:11:29;5.90;99.90
18797;DHT22;9526;52.612;13.300;2023-02-01T15:13:53;5.90;99.90
18797;DHT22;9526;52.612;13.300;2023-02-01T15:16:19;5.80;99.90
18797;DHT22;9526;52.612;13.300;2023-02-01T15:18:44;5.70;99.90
18797;DHT22;9526;52.612;13.300;2023-02-01T15:21:16;5.70;99.90
18797;DHT22;9526;52.612;13.300;2023-02-01T15:24:10;5.60;99.90
18797;DHT22;9526;52.612;13.300;2023-02-01T15:26:35;5.50;99.90
18797;DHT22;9526;52.612;13.300;2023-02-01T15:28:59;5.40;99.90
18797;DHT22;9526;52.612;13.300;2023-02-01T15:31:33;5.50;99.90
18797;DHT22;9526;52.612;13.300;2023-02-01T15:33:59;5.40;99.90
18797;DHT22;9526;52.612;13.300;2023-02-01T15:36:22;5.40;99.90
18797;DHT22;9526;52.612;13.300;2023-02-01T15:39:20;5.40;99.90
18797;DHT22;9526;52.612;13.300;2023-02-01T15:41:49;5.20;99.90
18797;DHT22;9526;52.612;13.300;2023-02-01T15:44:19;5.20;99.90
18797;DHT22;9526;52.612;13.300;2023-02-01T15:46:47;5.20;99.90
18797;DHT22;9526;52.612;13.300;2023-02-01T15:49:19;5.10;99.90
18797;DHT22;9526;52.612;13.300;2023-02-01T15:51:47;4.90;99.90
18797;DHT22;9526;52.612;13.300;2023-02-01T15:54:16;4.80;99.90
18797;DHT22;9526;52.612;13.300;2023-02-01T15:56:43;4.70;99.90
18797;DHT22;9526;52.612;13.300;2023-02-01T15:59:15;4.60;99.90
18797;DHT22;9526;52.612;13.300;2023-02-01T16:01:40;4.40;99.90
18797;DHT22;9526;52.612;13.300;2023-02-01T16:04:16;4.20;99.90
18797;DHT22;9526;52.612;13.300;2023-02-01T16:06:46;4.10;99.90
18797;DHT22;9526;52.612;13.300;2023-02-01T16:09:14;4.00;99.90
18797;DHT22;9526;52.612;13.300;2023-02-01T16:11:51;4.00;99.90
18797;DHT22;9526;52.612;13.300;2023-02-01T16:14:17;3.90;99.90
18797;DHT22;9526;52.612;13.300;2023-02-01T16:16:41;3.80;99.90
18797;DHT22;9526;52.612;13.300;2023-02-01T16:19:04;3.90;99.90
18797;DHT22;9526;52.612;13.300;2023-02-01T16:21:28;3.70;99.90
18797;DHT22;9526;52.612;13.300;2023-02-01T16:23:52;3.70;99.90
18797;DHT22;9526;52.612;13.300;2023-02-01T16:26:16;3.70;99.90